Time;durP1;ratioP1;P1;durP2;ratioP2;P2;SDS_P1;SDS_P2;PMS_P1;PMS_P2;Temp;Humidity;BMP_temperature;BMP_pressure;BME280_temperature;BME280_humidity;BME280_pressure;Samples;Min_cycle;Max_cycle;Signal;HPM_P1;HPM_P2
2023/03/03 00:00:58;;;;;;;56.78;23.20;;;3.20;99.90;;;;;;6204557;23;20107;-81
2023/03/03 00:03:26;;;;;;;63.40;23.02;;;3.20;99.90;;;;;;6204508;23;20083;-81
2023/03/03 00:05:53;;;;;;;66.60;24.70;;;3.10;99.90;;;;;;6207148;23;20020;-81
2023/03/03 00:08:21;;;;;;;59.55;22.58;;;3.10;99.90;;;;;;6204207;23;20008;-81
2023/03/03 00:10:49;;;;;;;54.78;20.45;;;3.10;99.90;;;;;;6205021;23;20391;-81
2023/03/03 00:13:18;;;;;;;52.80;20.17;;;3.10;99.90;;;;;;6204275;23;20020;-81
2023/03/03 00:15:46;;;;;;;54.65;21.30;;;3.10;99.90;;;;;;6204725;23;20027;-81
2023/03/03 00:18:35;;;;;;;54.75;21.42;;;3.10;99.90;;;;;;6204065;23;20725;-81
2023/03/03 00:21:13;;;;;;;49.53;21.10;;;3.00;99.90;;;;;;6204803;23;20107;-81
2023/03/03 00:23:42;;;;;;;47.22;19.35;;;3.00;99.90;;;;;;6204203;23;20107;-81
2023/03/03 00:26:19;;;;;;;54.10;19.33;;;3.00;99.90;;;;;;6203705;23;20021;-81
2023/03/03 00:28:51;;;;;;;46.17;19.50;;;1.90;99.90;;;;;;6204190;23;20107;-81
2023/03/03 00:31:30;;;;;;;50.30;20.08;;;2.90;99.90;;;;;;6204524;23;20106;-81
2023/03/03 00:34:19;;;;;;;50.17;20.23;;;2.90;99.90;;;;;;6205996;23;20095;-81
2023/03/03 00:36:50;;;;;;;59.65;22.25;;;2.90;99.90;;;;;;6205129;23;20039;-81
2023/03/03 00:39:20;;;;;;;54.25;21.92;;;2.90;99.90;;;;;;6205713;23;20043;-81
2023/03/03 00:41:48;;;;;;;65.80;22.27;;;2.90;99.90;;;;;;6204604;23;20023;-81
2023/03/03 00:44:33;;;;;;;53.10;21.20;;;2.90;99.90;;;;;;6205464;23;20032;-81
2023/03/03 00:47:26;;;;;;;55.25;21.80;;;2.90;99.90;;;;;;6230434;23;20017;-81
2023/03/03 00:50:06;;;;;;;49.50;19.42;;;2.80;99.90;;;;;;6205881;23;20044;-81
2023/03/03 00:52:36;;;;;;;49.10;19.45;;;2.80;99.90;;;;;;6204705;23;20012;-81
2023/03/03 00:55:05;;;;;;;49.28;19.80;;;2.90;99.90;;;;;;6204682;23;20103;-81
2023/03/03 00:57:32;;;;;;;56.95;21.20;;;2.80;99.90;;;;;;6204555;23;20050;-81
2023/03/03 01:00:00;;;;;;;50.67;20.42;;;2.80;99.90;;;;;;6204516;23;20016;-81
2023/03/03 01:02:29;;;;;;;50.63;19.70;;;2.80;99.90;;;;;;6205404;23;20054;-81
2023/03/03 01:04:57;;;;;;;55.03;21.67;;;2.80;99.90;;;;;;6205481;23;20084;-81
2023/03/03 01:07:24;;;;;;;57.13;21.73;;;2.80;99.90;;;;;;6204573;23;20646;-81
2023/03/03 01:09:51;;;;;;;56.20;19.98;;;2.80;99.90;;;;;;6204502;23;20023;-82
2023/03/03 01:12:19;;;;;;;55.78;20.65;;;2.80;99.90;;;;;;6205308;23;20407;-80
2023/03/03 01:14:48;;;;;;;56.97;22.67;;;2.80;99.90;;;;;;6199145;23;20020;-81
2023/03/03 01:17:16;;;;;;;47.80;19.40;;;2.80;99.90;;;;;;6223330;23;20024;-81
2023/03/03 01:19:43;;;;;;;53.90;20.60;;;2.80;99.90;;;;;;6223960;23;20020;-81
2023/03/03 01:22:10;;;;;;;56.92;20.85;;;2.80;99.90;;;;;;6223896;23;20025;-81
2023/03/03 01:24:37;;;;;;;45.50;18.98;;;2.80;99.90;;;;;;6223944;23;20079;-81
2023/03/03 01:27:04;;;;;;;50.08;18.77;;;2.80;99.90;;;;;;6224235;23;20067;-81
2023/03/03 01:29:32;;;;;;;46.08;18.77;;;2.90;99.90;;;;;;6224524;23;20016;-81
2023/03/03 01:31:59;;;;;;;51.10;19.33;;;2.90;99.90;;;;;;6200110;23;20047;-83
2023/03/03 01:34:26;;;;;;;47.65;18.58;;;2.90;99.90;;;;;;6170875;23;20033;-82
2023/03/03 01:36:54;;;;;;;46.10;18.17;;;2.90;99.90;;;;;;6171630;23;20016;-81
2023/03/03 01:39:22;;;;;;;45.70;18.35;;;2.90;99.90;;;;;;6225165;23;20021;-81
2023/03/03 01:41:49;;;;;;;55.50;19.50;;;2.90;99.90;;;;;;6201290;23;20071;-81
2023/03/03 01:44:18;;;;;;;46.30;17.90;;;2.90;99.90;;;;;;6226713;23;20092;-81
2023/03/03 01:47:06;;;;;;;46.78;18.60;;;2.90;99.90;;;;;;6178943;23;20067;-81
2023/03/03 01:49:40;;;;;;;46.78;17.88;;;2.90;99.90;;;;;;6228396;23;20044;-81
2023/03/03 01:52:33;;;;;;;50.08;20.58;;;2.90;99.90;;;;;;6179781;23;20395;-81
2023/03/03 01:55:08;;;;;;;52.97;19.33;;;3.00;99.90;;;;;;6179966;23;20012;-80
2023/03/03 01:57:42;;;;;;;45.30;18.42;;;3.00;99.90;;;;;;6228226;23;20023;-81
2023/03/03 02:00:12;;;;;;;49.50;19.02;;;3.00;99.90;;;;;;6230552;23;20040;-81
2023/03/03 02:02:41;;;;;;;44.42;18.75;;;3.00;99.90;;;;;;6231109;23;20020;-81
2023/03/03 02:05:11;;;;;;;55.28;20.30;;;3.00;99.90;;;;;;6231916;23;20182;-81
2023/03/03 02:07:38;;;;;;;55.58;20.23;;;3.00;99.90;;;;;;6207858;23;20020;-81
2023/03/03 02:10:06;;;;;;;56.67;20.50;;;3.00;99.90;;;;;;6234568;23;20016;-81
2023/03/03 02:12:50;;;;;;;55.53;22.20;;;3.00;99.90;;;;;;6184439;23;20020;-81
2023/03/03 02:15:31;;;;;;;61.20;24.38;;;3.00;99.90;;;;;;6189272;23;20032;-81
2023/03/03 02:18:04;;;;;;;56.10;23.63;;;3.10;99.90;;;;;;6213525;23;20027;-81
2023/03/03 02:21:08;;;;;;;57.92;23.42;;;3.10;99.90;;;;;;6212737;23;20020;-81
2023/03/03 02:24:03;;;;;;;59.60;23.15;;;3.00;99.90;;;;;;6212677;23;20012;-81
2023/03/03 02:26:35;;;;;;;60.63;24.35;;;3.10;99.90;;;;;;6212913;23;20016;-81
2023/03/03 02:29:06;;;;;;;58.88;22.60;;;3.10;99.90;;;;;;6212686;23;20043;-81
2023/03/03 02:31:34;;;;;;;61.17;24.13;;;3.10;99.90;;;;;;6210729;23;20031;-81
2023/03/03 02:34:01;;;;;;;74.45;26.50;;;3.10;99.90;;;;;;6210590;23;20054;-81
2023/03/03 02:36:35;;;;;;;65.65;24.02;;;3.10;99.90;;;;;;6201255;23;20021;-81
2023/03/03 02:39:13;;;;;;;65.32;26.25;;;3.10;99.90;;;;;;6174321;23;20093;-81
2023/03/03 02:41:59;;;;;;;57.22;24.20;;;3.20;99.90;;;;;;6174646;23;20081;-81
2023/03/03 02:44:34;;;;;;;;;;;3.20;99.90;;;;;;6175930;23;20021;-81
2023/03/03 02:47:04;;;;;;;54.85;22.95;;;3.20;99.90;;;;;;6175661;23;19979;-81
2023/03/03 02:49:34;;;;;;;59.70;23.65;;;3.20;99.90;;;;;;6152606;23;20021;-82
2023/03/03 02:52:08;;;;;;;63.78;25.50;;;3.20;99.90;;;;;;6176222;23;20017;-81
2023/03/03 02:54:38;;;;;;;60.67;24.40;;;3.30;99.90;;;;;;6176690;23;20036;-82
2023/03/03 02:57:07;;;;;;;73.68;27.15;;;3.20;99.90;;;;;;6174942;23;20009;-81
2023/03/03 02:59:35;;;;;;;68.20;26.33;;;3.20;99.90;;;;;;6172431;23;20023;-83
2023/03/03 03:02:09;;;;;;;67.85;25.70;;;3.30;99.90;;;;;;6172619;23;20434;-82
2023/03/03 03:04:36;;;;;;;67.38;25.23;;;3.30;99.90;;;;;;6172812;23;20049;-83
2023/03/03 03:07:05;;;;;;;56.60;24.45;;;3.30;99.90;;;;;;6172669;23;20056;-81
2023/03/03 03:09:35;;;;;;;59.50;25.25;;;3.30;99.90;;;;;;6175910;23;20021;-81
2023/03/03 03:12:04;;;;;;;59.58;24.38;;;3.40;99.90;;;;;;6175475;23;20016;-83
2023/03/03 03:14:35;;;;;;;59.03;24.55;;;3.30;99.90;;;;;;6213500;23;20024;-81
2023/03/03 03:17:05;;;;;;;61.15;25.42;;;3.40;99.90;;;;;;6229636;23;20027;-81
2023/03/03 03:19:33;;;;;;;61.38;24.08;;;3.40;99.90;;;;;;6204922;23;20024;-83
2023/03/03 03:22:03;;;;;;;62.35;25.42;;;3.40;99.90;;;;;;6229623;23;20084;-81
2023/03/03 03:24:33;;;;;;;70.65;25.88;;;3.40;99.90;;;;;;6228293;23;20020;-81
2023/03/03 03:27:04;;;;;;;62.30;25.48;;;3.40;99.90;;;;;;6228218;23;20027;-83
2023/03/03 03:29:33;;;;;;;53.90;24.50;;;3.40;99.90;;;;;;6229939;23;20021;-81
2023/03/03 03:32:01;;;;;;;59.40;24.30;;;3.50;99.90;;;;;;6204358;23;20001;-81
2023/03/03 03:34:28;;;;;;;62.15;23.80;;;3.40;99.90;;;;;;6179363;23;20016;-81
2023/03/03 03:36:57;;;;;;;60.95;24.25;;;3.50;99.90;;;;;;6204796;23;20040;-81
2023/03/03 03:39:27;;;;;;;58.17;24.10;;;3.50;99.90;;;;;;6178625;23;20043;-81
2023/03/03 03:41:55;;;;;;;54.35;22.35;;;3.50;99.90;;;;;;6142705;23;20021;-81
2023/03/03 03:44:24;;;;;;;59.47;25.27;;;3.50;99.90;;;;;;6117400;23;20056;-81
2023/03/03 03:46:52;;;;;;;58.95;24.35;;;3.50;99.90;;;;;;6140545;23;20025;-81
2023/03/03 03:49:20;;;;;;;57.50;23.00;;;3.50;99.90;;;;;;6141441;23;20047;-82
2023/03/03 03:51:49;;;;;;;49.55;21.90;;;3.50;99.90;;;;;;6141800;23;20014;-82
2023/03/03 03:54:19;;;;;;;58.05;22.98;;;3.50;99.90;;;;;;6142994;23;20032;-81
2023/03/03 03:56:47;;;;;;;62.25;24.30;;;3.60;99.90;;;;;;6141856;23;20025;-82
2023/03/03 03:59:15;;;;;;;66.82;25.40;;;3.50;99.90;;;;;;6141035;23;20124;-82
2023/03/03 04:01:42;;;;;;;66.25;25.30;;;3.50;99.90;;;;;;6141942;23;20073;-82
2023/03/03 04:04:10;;;;;;;65.50;24.80;;;3.50;99.90;;;;;;6141858;23;20029;-81
2023/03/03 04:06:37;;;;;;;55.65;22.63;;;3.50;99.90;;;;;;6116382;23;20012;-81
2023/03/03 04:09:05;;;;;;;63.00;24.33;;;3.60;99.90;;;;;;6151031;23;20017;-81
2023/03/03 04:11:33;;;;;;;60.33;23.85;;;3.60;99.90;;;;;;6146596;23;20043;-81
2023/03/03 04:14:03;;;;;;;57.72;22.67;;;3.60;99.90;;;;;;6199112;23;20028;-81
2023/03/03 04:16:31;;;;;;;51.78;23.52;;;3.60;99.90;;;;;;6224776;23;20035;-81
2023/03/03 04:18:58;;;;;;;65.50;24.77;;;3.60;99.90;;;;;;6228789;23;20020;-82
2023/03/03 04:21:26;;;;;;;60.60;23.08;;;3.60;99.90;;;;;;6226416;23;20048;-82
2023/03/03 04:23:57;;;;;;;52.88;22.88;;;3.60;99.90;;;;;;6202717;23;20078;-81
2023/03/03 04:26:25;;;;;;;56.88;23.10;;;3.60;99.90;;;;;;6201625;23;20467;-81
2023/03/03 04:28:53;;;;;;;59.20;24.17;;;3.60;99.90;;;;;;6226378;23;20071;-81
2023/03/03 04:31:23;;;;;;;53.05;21.33;;;3.60;99.90;;;;;;6225103;23;20021;-81
2023/03/03 04:33:52;;;;;;;62.55;22.55;;;3.60;99.90;;;;;;6226229;23;20016;-81
2023/03/03 04:36:22;;;;;;;49.25;23.55;;;3.60;99.90;;;;;;6225098;23;20016;-81
2023/03/03 04:38:49;;;;;;;50.33;21.50;;;3.60;99.90;;;;;;6201293;23;20024;-81
2023/03/03 04:41:18;;;;;;;60.45;22.27;;;3.70;99.90;;;;;;6226660;23;20024;-81
2023/03/03 04:43:45;;;;;;;53.78;22.50;;;3.70;99.90;;;;;;6228402;23;20436;-83
2023/03/03 04:46:13;;;;;;;52.95;21.90;;;3.70;99.90;;;;;;6226284;23;20039;-81
2023/03/03 04:48:40;;;;;;;54.78;22.90;;;3.70;99.90;;;;;;6201186;23;20024;-81
2023/03/03 04:51:09;;;;;;;54.20;21.50;;;3.70;99.90;;;;;;6225372;23;20017;-81
2023/03/03 04:53:37;;;;;;;52.35;22.08;;;3.70;99.90;;;;;;6203115;23;20795;-81
2023/03/03 04:56:06;;;;;;;56.38;22.85;;;3.70;99.90;;;;;;6226569;23;20017;-81
2023/03/03 04:58:35;;;;;;;48.50;21.65;;;3.70;99.90;;;;;;6252235;23;20031;-81
2023/03/03 05:01:02;;;;;;;50.90;22.02;;;3.80;99.90;;;;;;6224897;23;20055;-81
2023/03/03 05:03:31;;;;;;;49.25;21.05;;;3.80;99.90;;;;;;6201151;23;20092;-81
2023/03/03 05:05:59;;;;;;;51.85;21.10;;;3.70;99.90;;;;;;6202838;23;20020;-83
2023/03/03 05:08:26;;;;;;;50.80;22.20;;;3.80;99.90;;;;;;6227658;23;20017;-81
2023/03/03 05:10:53;;;;;;;62.08;22.50;;;3.80;99.90;;;;;;6229334;23;20022;-82
2023/03/03 05:13:21;;;;;;;54.67;22.05;;;3.80;99.90;;;;;;6229117;23;20020;-82
2023/03/03 05:15:54;;;;;;;58.10;23.98;;;3.80;99.90;;;;;;6202495;23;20042;-82
2023/03/03 05:18:23;;;;;;;58.28;22.85;;;3.80;99.90;;;;;;6227751;23;20017;-82
2023/03/03 05:20:51;;;;;;;50.97;21.25;;;3.80;99.90;;;;;;6228056;23;20021;-82
2023/03/03 05:23:18;;;;;;;57.38;22.27;;;3.80;99.90;;;;;;6204277;23;20071;-82
2023/03/03 05:25:49;;;;;;;59.42;23.50;;;3.80;99.90;;;;;;6197769;23;20033;-81
2023/03/03 05:28:18;;;;;;;61.30;25.50;;;3.80;99.90;;;;;;6148409;23;20020;-81
2023/03/03 05:30:45;;;;;;;70.28;26.60;;;3.80;99.90;;;;;;6147305;23;20017;-81
2023/03/03 05:33:15;;;;;;;77.35;29.48;;;3.80;99.90;;;;;;6147022;23;20044;-81
2023/03/03 05:35:42;;;;;;;70.97;29.73;;;3.80;99.90;;;;;;6147302;23;20471;-82
2023/03/03 05:38:10;;;;;;;70.60;29.42;;;3.90;99.90;;;;;;6145586;23;20384;-81
2023/03/03 05:40:39;;;;;;;71.40;30.70;;;3.80;99.90;;;;;;6168375;23;20037;-81
2023/03/03 05:43:06;;;;;;;76.55;30.13;;;3.00;99.90;;;;;;6144581;23;20052;-81
2023/03/03 05:45:34;;;;;;;72.00;27.98;;;3.90;99.90;;;;;;6167938;23;20048;-81
2023/03/03 05:48:02;;;;;;;73.35;30.23;;;3.80;99.90;;;;;;6141768;23;20021;-81
2023/03/03 05:50:29;;;;;;;78.82;30.80;;;3.90;99.90;;;;;;6144144;23;20017;-81
2023/03/03 05:52:57;;;;;;;78.32;30.73;;;3.90;99.90;;;;;;6143997;23;20017;-81
2023/03/03 05:55:24;;;;;;;73.95;31.35;;;3.90;99.90;;;;;;6142185;23;20104;-81
2023/03/03 05:57:51;;;;;;;78.28;29.95;;;4.00;99.90;;;;;;6194238;23;20471;-81
2023/03/03 06:00:19;;;;;;;79.07;29.95;;;4.00;99.90;;;;;;6222364;23;20465;-81
2023/03/03 06:02:46;;;;;;;75.20;29.75;;;4.00;99.90;;;;;;6226490;23;20035;-81
2023/03/03 06:05:13;;;;;;;80.57;30.20;;;4.10;99.90;;;;;;6225626;23;20048;-81
2023/03/03 06:07:40;;;;;;;72.38;29.33;;;4.10;99.90;;;;;;6200488;23;20076;-81
2023/03/03 06:10:08;;;;;;;72.53;28.60;;;4.10;99.90;;;;;;6225034;23;20021;-82
2023/03/03 06:12:40;;;;;;;71.63;29.27;;;4.10;99.90;;;;;;6225656;23;20047;-83
2023/03/03 06:15:09;;;;;;;80.38;31.02;;;4.10;99.90;;;;;;6224519;23;20017;-82
2023/03/03 06:17:36;;;;;;;82.22;33.38;;;4.10;99.90;;;;;;6223259;23;20024;-82
2023/03/03 06:20:04;;;;;;;76.68;31.77;;;3.50;99.90;;;;;;6222543;23;20025;-81
2023/03/03 06:22:31;;;;;;;74.25;30.88;;;4.20;99.90;;;;;;6225608;23;20242;-81
2023/03/03 06:24:59;;;;;;;72.90;31.23;;;4.20;99.90;;;;;;6198227;23;20111;-82
2023/03/03 06:27:26;;;;;;;69.60;30.00;;;4.20;99.90;;;;;;6223489;23;20027;-82
2023/03/03 06:29:53;;;;;;;68.78;29.88;;;3.30;99.90;;;;;;6198946;23;20016;-82
2023/03/03 06:32:21;;;;;;;66.45;28.27;;;4.20;99.90;;;;;;6222785;23;20103;-82
2023/03/03 06:34:49;;;;;;;72.82;28.42;;;4.50;99.90;;;;;;6223155;23;20017;-82
2023/03/03 06:37:16;;;;;;;64.57;29.50;;;4.30;99.90;;;;;;6222673;23;20020;-82
2023/03/03 06:39:43;;;;;;;69.28;28.17;;;4.30;99.90;;;;;;6223170;23;20024;-82
2023/03/03 06:42:11;;;;;;;66.80;26.67;;;4.40;99.90;;;;;;6222570;23;20103;-82
2023/03/03 06:44:38;;;;;;;65.95;26.77;;;4.40;99.90;;;;;;6196325;23;20031;-81
2023/03/03 06:47:05;;;;;;;77.10;27.33;;;4.40;99.90;;;;;;6222529;23;20020;-81
2023/03/03 06:49:33;;;;;;;72.85;26.63;;;4.40;99.90;;;;;;6215711;23;20024;-82
2023/03/03 06:52:08;;;;;;;64.20;25.33;;;4.50;99.90;;;;;;6217907;23;20025;-83
2023/03/03 06:54:36;;;;;;;55.38;23.15;;;4.50;99.90;;;;;;6212257;23;20047;-81
2023/03/03 06:57:22;;;;;;;51.70;22.42;;;4.50;99.90;;;;;;6192406;23;20024;-82
2023/03/03 06:59:52;;;;;;;51.80;22.35;;;4.50;99.90;;;;;;6211554;23;20028;-82
2023/03/03 07:02:21;;;;;;;51.72;22.77;;;4.60;99.90;;;;;;6209669;23;20032;-81
2023/03/03 07:04:48;;;;;;;66.85;25.58;;;4.60;99.90;;;;;;6189414;23;20021;-82
2023/03/03 07:07:23;;;;;;;62.60;23.05;;;4.60;99.90;;;;;;6212913;23;20021;-82
2023/03/03 07:09:55;;;;;;;64.28;27.65;;;4.70;99.90;;;;;;6191257;23;20020;-82
2023/03/03 07:12:27;;;;;;;57.83;25.83;;;4.80;99.90;;;;;;6186973;23;20025;-82
2023/03/03 07:15:11;;;;;;;57.50;22.85;;;4.80;99.90;;;;;;6219802;23;20024;-82
2023/03/03 07:17:44;;;;;;;49.35;21.08;;;4.90;99.90;;;;;;6222904;23;20031;-82
2023/03/03 07:20:22;;;;;;;;;;;4.90;99.90;;;;;;6222645;23;20029;-82
2023/03/03 07:22:51;;;;;;;42.53;19.50;;;5.00;99.90;;;;;;6196300;23;19979;-81
2023/03/03 07:25:36;;;;;;;45.08;18.23;;;5.00;99.90;;;;;;6221045;23;20048;-82
2023/03/03 07:28:23;;;;;;;44.33;19.40;;;5.10;99.90;;;;;;6200584;23;20028;-82
2023/03/03 07:30:56;;;;;;;51.65;22.30;;;5.20;99.90;;;;;;6196049;23;20008;-81
2023/03/03 07:33:42;;;;;;;58.03;23.00;;;5.20;99.90;;;;;;6219384;23;20012;-82
2023/03/03 07:36:40;;;;;;;52.13;21.75;;;5.20;99.90;;;;;;6195488;23;20017;-81
2023/03/03 07:39:36;;;;;;;53.22;20.63;;;5.70;99.90;;;;;;6195955;23;20079;-81
2023/03/03 07:42:43;;;;;;;50.28;20.42;;;5.30;99.90;;;;;;6220088;23;20029;-81
2023/03/03 07:45:33;;;;;;;47.42;19.65;;;5.30;99.90;;;;;;6138517;23;20025;-82
2023/03/03 07:48:29;;;;;;;44.85;19.42;;;5.40;99.90;;;;;;6192602;23;20099;-82
2023/03/03 07:51:04;;;;;;;48.40;19.38;;;5.40;99.90;;;;;;6190277;23;20548;-82
2023/03/03 07:53:35;;;;;;;50.80;20.75;;;5.30;99.90;;;;;;6189268;23;20448;-82
2023/03/03 07:56:14;;;;;;;53.00;21.90;;;5.40;99.90;;;;;;6183186;23;20027;-82
2023/03/03 07:58:43;;;;;;;49.38;20.38;;;5.40;99.90;;;;;;6184091;23;20021;-81
2023/03/03 08:01:26;;;;;;;44.05;19.08;;;5.40;99.90;;;;;;6184251;23;20423;-82
2023/03/03 08:03:54;;;;;;;51.58;18.67;;;5.40;99.90;;;;;;6185173;23;20009;-82
2023/03/03 08:06:21;;;;;;;53.65;20.55;;;5.50;99.90;;;;;;6207945;23;20059;-81
2023/03/03 08:08:50;;;;;;;320.73;111.80;;;5.10;99.90;;;;;;6186548;23;20028;-81
2023/03/03 08:11:17;;;;;;;126.60;49.75;;;5.60;99.90;;;;;;6182111;23;20116;-82
2023/03/03 08:13:45;;;;;;;162.20;53.15;;;5.60;99.90;;;;;;6183489;23;20108;-81
2023/03/03 08:16:12;;;;;;;96.25;33.42;;;5.70;99.90;;;;;;6186196;23;20020;-81
2023/03/03 08:18:47;;;;;;;53.03;23.23;;;5.80;99.90;;;;;;6209920;23;20089;-81
2023/03/03 08:21:19;;;;;;;48.55;20.10;;;5.80;99.90;;;;;;6186963;23;20016;-81
2023/03/03 08:23:50;;;;;;;66.72;34.10;;;5.70;99.90;;;;;;6187334;23;20519;-81
2023/03/03 08:26:22;;;;;;;51.08;21.98;;;5.80;99.90;;;;;;6190086;23;20041;-81
2023/03/03 08:28:49;;;;;;;62.97;30.73;;;4.90;99.90;;;;;;6189292;23;20448;-83
2023/03/03 08:31:17;;;;;;;110.07;50.47;;;6.00;99.90;;;;;;6188424;23;20509;-81
2023/03/03 08:34:04;;;;;;;64.85;28.60;;;6.10;99.90;;;;;;6219389;23;20446;-81
2023/03/03 08:36:32;;;;;;;46.42;21.98;;;6.20;99.90;;;;;;6187776;23;20016;-81
2023/03/03 08:39:02;;;;;;;50.70;20.90;;;6.30;99.90;;;;;;6187851;23;20027;-82
2023/03/03 08:41:29;;;;;;;53.58;22.90;;;6.40;99.90;;;;;;6188339;23;20047;-81
2023/03/03 08:43:56;;;;;;;49.90;21.73;;;6.50;99.90;;;;;;6210429;23;20452;-82
2023/03/03 08:46:23;;;;;;;47.13;20.27;;;6.60;99.90;;;;;;6185310;23;20024;-81
2023/03/03 08:48:51;;;;;;;57.95;28.73;;;6.70;99.90;;;;;;6184299;23;20020;-81
2023/03/03 08:51:19;;;;;;;52.70;23.10;;;6.80;99.90;;;;;;6184387;23;20020;-80
2023/03/03 08:53:46;;;;;;;39.78;18.92;;;6.80;99.90;;;;;;6208252;23;20031;-81
2023/03/03 08:56:13;;;;;;;44.45;17.38;;;6.90;99.90;;;;;;6187709;23;20419;-81
2023/03/03 08:58:46;;;;;;;44.10;17.02;;;7.00;99.90;;;;;;6185589;23;20435;-81
2023/03/03 09:01:27;;;;;;;37.20;17.05;;;7.00;99.90;;;;;;6189413;23;20569;-81
2023/03/03 09:03:55;;;;;;;44.53;16.38;;;6.90;99.90;;;;;;6213060;23;20024;-81
2023/03/03 09:06:22;;;;;;;37.35;16.17;;;7.00;99.90;;;;;;6184064;23;20034;-81
2023/03/03 09:08:50;;;;;;;48.20;19.95;;;7.10;99.90;;;;;;6184904;23;20043;-81
2023/03/03 09:11:26;;;;;;;42.03;18.88;;;6.80;99.90;;;;;;6211193;23;20102;-81
2023/03/03 09:14:05;;;;;;;44.92;17.70;;;7.10;99.90;;;;;;6185286;23;20024;-81
2023/03/03 09:16:40;;;;;;;44.30;18.73;;;7.10;99.90;;;;;;6184485;23;20070;-81
2023/03/03 09:19:21;;;;;;;39.60;17.52;;;7.30;99.90;;;;;;6186491;23;20028;-81
2023/03/03 09:21:53;;;;;;;58.60;24.00;;;7.30;99.90;;;;;;6183271;23;20359;-80
2023/03/03 09:24:28;;;;;;;33.72;15.75;;;7.50;99.90;;;;;;6206630;23;20083;-81
2023/03/03 09:26:57;;;;;;;50.78;18.73;;;7.50;99.90;;;;;;6210945;23;20420;-80
2023/03/03 09:29:28;;;;;;;53.53;22.70;;;7.50;99.90;;;;;;6182567;23;20086;-83
2023/03/03 09:32:23;;;;;;;40.42;17.05;;;6.50;99.90;;;;;;6185745;23;20024;-82
2023/03/03 09:34:51;;;;;;;40.10;16.05;;;7.70;99.90;;;;;;6188120;23;20043;-83
2023/03/03 09:37:25;;;;;;;39.67;18.25;;;7.80;99.90;;;;;;6187279;23;20352;-82
2023/03/03 09:39:57;;;;;;;43.80;18.65;;;7.80;99.90;;;;;;6183719;23;20031;-82
2023/03/03 09:42:42;;;;;;;43.10;19.30;;;7.90;99.90;;;;;;6208114;23;20114;-82
2023/03/03 09:45:28;;;;;;;45.05;19.20;;;8.00;99.90;;;;;;6207502;23;20020;-81
2023/03/03 09:48:07;;;;;;;40.75;17.20;;;6.80;99.90;;;;;;6209591;23;20028;-81
2023/03/03 09:50:43;;;;;;;35.03;15.30;;;7.90;99.90;;;;;;6189226;23;20020;-80
2023/03/03 09:53:31;;;;;;;40.97;17.92;;;8.00;99.90;;;;;;6187145;23;20024;-81
2023/03/03 09:56:10;;;;;;;37.25;17.08;;;8.10;99.90;;;;;;6185191;23;20020;-81
2023/03/03 09:59:01;;;;;;;34.35;15.20;;;8.20;99.90;;;;;;6183971;23;20020;-82
2023/03/03 10:01:40;;;;;;;34.88;15.38;;;8.30;99.90;;;;;;6181702;23;20123;-81
2023/03/03 10:04:41;;;;;;;31.35;14.30;;;8.40;99.90;;;;;;6184921;23;20054;-82
2023/03/03 10:07:14;;;;;;;39.70;17.42;;;8.50;99.90;;;;;;6189563;23;20364;-82
2023/03/03 10:09:56;;;;;;;33.65;14.75;;;8.50;99.90;;;;;;6210623;23;20449;-82
2023/03/03 10:12:27;;;;;;;43.50;17.25;;;8.60;99.90;;;;;;6225831;23;20020;-83
2023/03/03 10:15:15;;;;;;;35.67;16.80;;;8.60;99.90;;;;;;6183420;23;20477;-82
2023/03/03 10:17:48;;;;;;;33.38;13.93;;;8.40;99.90;;;;;;6184352;23;20040;-82
2023/03/03 10:20:42;;;;;;;30.45;13.60;;;9.00;99.90;;;;;;6182954;23;20028;-83
2023/03/03 10:23:29;;;;;;;29.38;13.85;;;8.90;99.90;;;;;;6209650;23;20031;-82
2023/03/03 10:26:17;;;;;;;38.95;16.35;;;8.90;99.90;;;;;;6183260;23;20637;-83
2023/03/03 10:28:59;;;;;;;32.08;14.23;;;8.90;99.90;;;;;;6187547;23;20343;-81
2023/03/03 10:31:51;;;;;;;32.67;14.70;;;8.80;99.90;;;;;;6216228;23;20118;-83
2023/03/03 10:34:36;;;;;;;33.38;13.23;;;8.90;99.90;;;;;;6207365;23;20434;-81
2023/03/03 10:37:29;;;;;;;38.35;14.88;;;8.90;99.80;;;;;;6181710;23;20030;-81
2023/03/03 10:40:20;;;;;;;42.13;18.15;;;9.00;99.70;;;;;;6179974;23;20020;-81
2023/03/03 10:42:53;;;;;;;36.72;15.50;;;9.00;99.40;;;;;;6211405;23;20392;-82
2023/03/03 10:45:41;;;;;;;41.58;17.67;;;8.90;98.70;;;;;;6208631;23;20047;-81
2023/03/03 10:48:36;;;;;;;44.55;17.85;;;8.90;99.40;;;;;;6188013;23;20016;-82
2023/03/03 10:51:20;;;;;;;39.40;16.23;;;8.90;99.50;;;;;;6180372;23;20024;-82
2023/03/03 10:53:59;;;;;;;36.80;16.17;;;8.90;99.60;;;;;;6186009;23;20329;-82
2023/03/03 10:56:51;;;;;;;38.40;17.02;;;8.80;99.70;;;;;;6184197;23;20055;-81
2023/03/03 10:59:54;;;;;;;39.42;16.85;;;8.80;99.90;;;;;;6188115;23;20023;-82
2023/03/03 11:02:44;;;;;;;33.03;14.75;;;9.10;99.90;;;;;;6210154;23;20020;-81
2023/03/03 11:05:40;;;;;;;35.72;15.02;;;9.40;99.20;;;;;;6185142;23;20622;-82
2023/03/03 11:08:14;;;;;;;35.97;15.32;;;9.70;97.60;;;;;;6183015;23;20341;-81
2023/03/03 11:10:51;;;;;;;33.47;14.27;;;10.00;98.00;;;;;;6213896;23;20074;-81
2023/03/03 11:13:24;;;;;;;34.40;14.63;;;9.90;96.30;;;;;;6183694;23;20448;-81
2023/03/03 11:16:09;;;;;;;38.30;15.35;;;10.10;96.40;;;;;;6178628;23;20020;-81
2023/03/03 11:18:55;;;;;;;34.97;15.38;;;10.10;95.50;;;;;;6182352;23;20020;-82
2023/03/03 11:21:48;;;;;;;34.50;15.18;;;10.00;95.70;;;;;;6183715;23;20093;-82
2023/03/03 11:24:15;;;;;;;31.55;14.30;;;10.40;95.50;;;;;;6183354;23;20670;-82
2023/03/03 11:27:02;;;;;;;28.38;13.52;;;10.30;95.00;;;;;;6189177;23;20448;-82
2023/03/03 11:29:55;;;;;;;28.05;11.23;;;10.40;94.20;;;;;;6184892;23;20031;-82
2023/03/03 11:32:48;;;;;;;26.17;11.23;;;10.50;94.20;;;;;;6183644;23;20442;-81
2023/03/03 11:35:24;;;;;;;18.23;6.95;;;10.50;93.10;;;;;;6183771;23;20999;-82
2023/03/03 11:38:19;;;;;;;26.88;10.65;;;10.60;93.30;;;;;;6190084;23;20073;-81
2023/03/03 11:41:20;;;;;;;25.35;10.55;;;10.60;92.80;;;;;;6187935;23;20110;-82
2023/03/03 11:43:55;;;;;;;24.63;9.90;;;10.70;93.00;;;;;;6184251;23;20028;-82
2023/03/03 11:46:31;;;;;;;25.90;12.00;;;10.70;93.00;;;;;;6184954;23;20030;-81
2023/03/03 11:49:21;;;;;;;19.77;10.35;;;10.80;92.70;;;;;;6183686;23;20103;-80
2023/03/03 11:52:13;;;;;;;22.42;9.77;;;10.80;92.30;;;;;;6185236;23;20016;-82
2023/03/03 11:55:02;;;;;;;23.00;10.18;;;10.90;92.30;;;;;;6187408;23;20016;-82
2023/03/03 11:57:42;;;;;;;23.08;10.00;;;11.10;91.90;;;;;;6185879;23;20047;-82
2023/03/03 12:00:39;;;;;;;21.48;9.48;;;11.00;91.80;;;;;;6183590;23;20030;-82
2023/03/03 12:03:34;;;;;;;20.55;9.75;;;11.10;91.40;;;;;;6187258;23;20742;-82
2023/03/03 12:06:18;;;;;;;21.42;9.65;;;11.20;91.40;;;;;;6191809;23;20028;-83
2023/03/03 12:09:04;;;;;;;23.13;9.68;;;11.20;91.70;;;;;;6185092;23;20550;-82
2023/03/03 12:11:37;;;;;;;21.80;8.32;;;11.10;91.40;;;;;;6186954;23;20103;-82
2023/03/03 12:14:27;;;;;;;19.45;8.77;;;11.20;91.00;;;;;;6190234;23;20028;-82
2023/03/03 12:17:15;;;;;;;19.88;9.35;;;10.90;91.30;;;;;;6210436;23;20050;-81
2023/03/03 12:19:48;;;;;;;24.88;9.05;;;10.90;91.70;;;;;;6206358;23;20169;-82
2023/03/03 12:22:45;;;;;;;23.63;10.55;;;10.80;91.60;;;;;;6220846;23;20020;-82
2023/03/03 12:25:45;;;;;;;19.40;9.07;;;10.80;91.70;;;;;;6208398;23;20363;-82
2023/03/03 12:28:28;;;;;;;21.75;10.10;;;11.10;91.70;;;;;;6192565;23;20460;-82
2023/03/03 12:31:04;;;;;;;;;;;10.90;91.70;;;;;;6182931;23;20044;-82
2023/03/03 12:33:59;;;;;;;24.48;10.27;;;10.50;91.20;;;;;;6191183;23;19915;-82
2023/03/03 12:36:46;;;;;;;24.58;8.73;;;11.00;91.40;;;;;;6188021;23;20507;-82
2023/03/03 12:39:36;;;;;;;20.70;8.88;;;11.00;91.00;;;;;;6217026;23;20024;-82
2023/03/03 12:42:37;;;;;;;20.45;8.57;;;11.10;91.40;;;;;;6164961;23;20024;-82
2023/03/03 12:45:30;;;;;;;23.45;9.07;;;11.10;90.80;;;;;;6211950;23;20066;-81
2023/03/03 12:48:09;;;;;;;23.02;9.35;;;11.20;90.60;;;;;;6185154;23;20029;-82
2023/03/03 12:51:10;;;;;;;20.77;9.30;;;11.20;90.60;;;;;;6208889;23;20024;-81
2023/03/03 12:54:02;;;;;;;21.77;8.77;;;11.30;90.30;;;;;;6213418;23;20042;-81
2023/03/03 12:56:59;;;;;;;19.60;7.75;;;11.40;90.10;;;;;;6210882;23;20020;-82
2023/03/03 12:59:51;;;;;;;22.58;8.98;;;11.50;90.10;;;;;;6190546;23;20058;-82
2023/03/03 13:02:57;;;;;;;19.80;8.10;;;11.40;89.50;;;;;;6193235;23;20380;-82
2023/03/03 13:05:39;;;;;;;20.42;9.65;;;11.50;88.80;;;;;;6193345;23;20024;-83
2023/03/03 13:08:30;;;;;;;21.95;9.50;;;11.50;89.30;;;;;;6212388;23;20039;-82
2023/03/03 13:11:27;;;;;;;20.52;8.65;;;11.60;89.80;;;;;;6193932;23;20050;-82
2023/03/03 13:25:02;;;;;;;17.27;8.63;;;11.20;89.70;;;;;;6193471;22;20031;-88
2023/03/03 13:27:41;;;;;;;22.80;9.85;;;11.30;89.10;;;;;;6124287;23;20052;-81
2023/03/03 13:30:36;;;;;;;18.38;8.57;;;11.10;88.70;;;;;;6103580;23;20128;-82